createdAt,value
2018-07-27T00:00:18.059Z,11.80
2018-07-27T00:02:46.779Z,9.83
2018-07-27T00:05:15.436Z,11.13
2018-07-27T00:07:44.355Z,11.77
2018-07-27T00:10:15.525Z,12.20
2018-07-27T00:12:44.176Z,10.10
2018-07-27T00:15:13.326Z,11.43
2018-07-27T00:17:42.270Z,11.23
2018-07-27T00:20:11.051Z,10.37
2018-07-27T00:22:40.153Z,9.80
2018-07-27T00:25:08.809Z,10.27
2018-07-27T00:27:37.516Z,9.60
2018-07-27T00:30:07.702Z,10.73
2018-07-27T00:32:36.683Z,11.47
2018-07-27T00:35:05.423Z,11.30
2018-07-27T00:37:34.105Z,11.20
2018-07-27T00:40:02.791Z,11.90
2018-07-27T00:42:31.446Z,11.17
2018-07-27T00:45:00.122Z,11.20
2018-07-27T00:47:28.754Z,11.23
2018-07-27T00:49:57.434Z,11.13
2018-07-27T00:52:26.068Z,12.00
2018-07-27T00:54:54.724Z,13.00
2018-07-27T00:57:23.665Z,13.27
2018-07-27T00:59:52.331Z,13.27
2018-07-27T01:02:21.038Z,12.07
2018-07-27T01:04:49.812Z,11.47
2018-07-27T01:07:18.974Z,11.43
2018-07-27T01:09:47.992Z,11.80
2018-07-27T01:12:16.663Z,10.97
2018-07-27T01:14:45.280Z,11.30
2018-07-27T01:17:14.565Z,11.10
2018-07-27T01:19:43.581Z,11.73
2018-07-27T01:22:12.274Z,11.67
2018-07-27T01:24:40.929Z,11.53
2018-07-27T01:27:09.616Z,11.57
2018-07-27T01:29:38.267Z,11.50
2018-07-27T01:32:07.213Z,12.23
2018-07-27T01:34:35.866Z,12.60
2018-07-27T01:37:04.834Z,11.90
2018-07-27T01:39:33.479Z,11.93
2018-07-27T01:42:02.188Z,11.67
2018-07-27T01:44:30.822Z,11.93
2018-07-27T01:46:59.815Z,11.67
2018-07-27T01:49:28.480Z,11.40
2018-07-27T01:51:57.139Z,10.87
2018-07-27T01:54:25.783Z,11.30
2018-07-27T01:56:54.426Z,11.20
2018-07-27T01:59:23.058Z,11.07
2018-07-27T02:01:51.770Z,11.53
2018-07-27T02:04:20.447Z,11.80
2018-07-27T02:06:49.193Z,10.67
2018-07-27T02:09:18.162Z,10.53
2018-07-27T02:11:47.151Z,10.57
2018-07-27T02:14:15.854Z,10.80
2018-07-27T02:16:44.818Z,11.20
2018-07-27T02:19:13.519Z,10.37
2018-07-27T02:21:42.482Z,10.57
2018-07-27T02:24:11.191Z,11.40
2018-07-27T02:26:39.914Z,11.37
2018-07-27T02:29:08.853Z,10.10
2018-07-27T02:31:37.524Z,11.17
2018-07-27T02:34:06.529Z,10.87
2018-07-27T02:36:35.465Z,10.77
2018-07-27T02:39:06.105Z,10.63
2018-07-27T02:41:34.762Z,10.47
2018-07-27T02:44:03.459Z,10.60
2018-07-27T02:46:32.165Z,10.90
2018-07-27T02:49:01.333Z,11.57
2018-07-27T02:51:30.069Z,10.80
2018-07-27T02:53:58.710Z,11.60
2018-07-27T02:56:27.381Z,11.40
2018-07-27T02:58:56.029Z,9.53
2018-07-27T03:01:24.839Z,9.90
2018-07-27T03:03:53.867Z,10.03
2018-07-27T03:06:22.588Z,10.37
2018-07-27T03:08:51.252Z,11.07
2018-07-27T03:11:20.060Z,11.83
2018-07-27T03:13:49.025Z,11.57
2018-07-27T03:16:18.001Z,12.30
2018-07-27T03:18:46.691Z,11.30
2018-07-27T03:21:15.401Z,11.77
2018-07-27T03:23:44.400Z,12.07
2018-07-27T03:26:13.371Z,12.13
2018-07-27T03:28:42.031Z,12.47
2018-07-27T03:31:10.693Z,12.43
2018-07-27T03:33:39.402Z,11.17
2018-07-27T03:36:08.067Z,11.97
2018-07-27T03:38:37.854Z,12.70
2018-07-27T03:41:06.558Z,12.57
2018-07-27T03:43:35.248Z,12.67
2018-07-27T03:46:04.010Z,12.60
2018-07-27T03:48:33.258Z,12.23
2018-07-27T03:51:01.962Z,11.30
2018-07-27T03:53:30.726Z,11.90
2018-07-27T03:55:59.423Z,12.60
2018-07-27T03:58:28.175Z,12.27
2018-07-27T04:00:56.831Z,12.27
2018-07-27T04:03:25.469Z,13.53
2018-07-27T04:05:54.426Z,12.37
2018-07-27T04:08:23.085Z,14.43
2018-07-27T04:10:51.703Z,12.40
2018-07-27T04:13:20.388Z,12.97
2018-07-27T04:15:49.764Z,11.50
2018-07-27T04:18:19.111Z,12.97
2018-07-27T04:20:48.052Z,11.93
2018-07-27T04:23:16.776Z,9.87
2018-07-27T04:25:45.414Z,10.70
2018-07-27T04:28:14.113Z,9.33
2018-07-27T04:30:42.830Z,10.00
2018-07-27T04:33:11.486Z,10.00
2018-07-27T04:35:40.174Z,10.13
2018-07-27T04:38:09.140Z,11.17
2018-07-27T04:40:37.810Z,10.47
2018-07-27T04:43:06.528Z,10.40
2018-07-27T04:45:35.202Z,8.67
2018-07-27T04:48:03.916Z,9.70
2018-07-27T04:50:32.973Z,10.20
2018-07-27T04:53:01.662Z,11.13
2018-07-27T04:55:30.682Z,11.33
2018-07-27T04:57:59.637Z,11.20
2018-07-27T05:00:28.310Z,12.47
2018-07-27T05:02:56.971Z,11.43
2018-07-27T05:05:25.672Z,11.83
2018-07-27T05:07:54.612Z,12.00
2018-07-27T05:10:27.455Z,11.60
2018-07-27T05:12:56.138Z,12.30
2018-07-27T05:15:25.175Z,12.00
2018-07-27T05:17:53.849Z,12.37
2018-07-27T05:20:22.859Z,11.20
2018-07-27T05:22:51.487Z,12.60
2018-07-27T05:25:20.195Z,12.70
2018-07-27T05:27:48.896Z,12.27
2018-07-27T05:30:17.743Z,13.43
2018-07-27T05:32:46.457Z,14.90
2018-07-27T05:35:15.179Z,15.53
2018-07-27T05:37:43.858Z,14.47
2018-07-27T05:40:12.588Z,14.33
2018-07-27T05:42:41.270Z,15.43
2018-07-27T05:45:10.020Z,14.67
2018-07-27T05:47:38.738Z,16.63
2018-07-27T05:50:07.677Z,15.33
2018-07-27T05:52:36.390Z,20.63
2018-07-27T05:55:05.507Z,24.13
2018-07-27T05:57:34.542Z,23.60
2018-07-27T06:00:04.549Z,18.70
2018-07-27T06:02:33.217Z,17.30
2018-07-27T06:05:02.028Z,19.00
2018-07-27T06:07:30.746Z,17.87
2018-07-27T06:09:59.453Z,25.33
2018-07-27T06:12:28.253Z,24.57
2018-07-27T06:14:57.003Z,17.97
2018-07-27T06:17:26.010Z,17.27
2018-07-27T06:19:55.020Z,17.40
2018-07-27T06:22:24.018Z,17.20
2018-07-27T06:24:54.054Z,26.23
2018-07-27T06:27:22.787Z,29.90
2018-07-27T06:29:51.657Z,24.27
2018-07-27T06:32:20.547Z,16.50
2018-07-27T06:34:49.219Z,19.03
2018-07-27T06:37:18.540Z,20.33
2018-07-27T06:39:47.310Z,23.83
2018-07-27T06:42:16.874Z,21.43
2018-07-27T06:44:46.047Z,21.30
2018-07-27T06:47:14.710Z,21.57
2018-07-27T06:49:43.701Z,20.60
2018-07-27T06:52:12.391Z,19.73
2018-07-27T06:54:41.076Z,19.37
2018-07-27T06:57:10.234Z,17.63
2018-07-27T06:59:38.911Z,18.40
2018-07-27T07:02:07.825Z,18.47
2018-07-27T07:04:36.526Z,18.23
2018-07-27T07:07:05.314Z,17.97
2018-07-27T07:09:34.035Z,18.50
2018-07-27T07:12:02.726Z,17.40
2018-07-27T07:14:31.713Z,18.20
2018-07-27T07:17:00.426Z,17.77
2018-07-27T07:19:29.437Z,19.33
2018-07-27T07:21:59.090Z,20.50
2018-07-27T07:24:27.734Z,18.83
2018-07-27T07:26:56.403Z,18.27
2018-07-27T07:29:25.403Z,18.10
2018-07-27T07:31:54.411Z,19.03
2018-07-27T07:34:23.366Z,17.97
2018-07-27T07:36:52.345Z,17.90
2018-07-27T07:39:21.263Z,16.73
2018-07-27T07:41:49.921Z,17.97
2018-07-27T07:44:18.607Z,15.93
2018-07-27T07:46:47.350Z,16.90
2018-07-27T07:49:16.467Z,16.53
2018-07-27T07:51:45.157Z,15.30
2018-07-27T07:54:13.842Z,17.03
2018-07-27T07:56:42.587Z,15.73
2018-07-27T07:59:11.416Z,14.60
2018-07-27T08:01:40.581Z,14.83
2018-07-27T08:04:09.280Z,13.57
2018-07-27T08:06:37.953Z,14.70
2018-07-27T08:09:08.764Z,14.25
2018-07-27T08:11:37.698Z,18.37
2018-07-27T08:14:06.634Z,13.70
2018-07-27T08:16:35.391Z,14.00
2018-07-27T08:19:04.133Z,14.15
2018-07-27T08:21:32.853Z,14.55
2018-07-27T08:24:02.821Z,14.05
2018-07-27T08:26:43.918Z,14.50
2018-07-27T08:29:13.722Z,14.65
2018-07-27T08:31:43.523Z,15.20
2018-07-27T08:34:13.131Z,15.38
2018-07-27T08:36:42.270Z,14.40
2018-07-27T08:39:13.339Z,15.32
2018-07-27T08:41:42.696Z,14.95
2018-07-27T08:44:12.935Z,15.43
2018-07-27T08:46:42.397Z,14.90
2018-07-27T08:49:11.644Z,15.38
2018-07-27T08:51:40.685Z,15.55
2018-07-27T08:54:10.210Z,15.88
2018-07-27T08:56:39.539Z,15.35
2018-07-27T08:59:08.953Z,15.08
2018-07-27T09:01:37.894Z,21.07
2018-07-27T09:04:07.590Z,15.20
2018-07-27T09:06:36.980Z,15.50
2018-07-27T09:09:14.500Z,15.48
2018-07-27T09:11:43.636Z,15.58
2018-07-27T09:14:13.095Z,15.85
2018-07-27T09:16:42.251Z,14.28
2018-07-27T09:19:11.225Z,14.20
2018-07-27T09:21:40.728Z,13.98
2018-07-27T09:24:09.802Z,13.18
2018-07-27T09:26:38.643Z,14.25
2018-07-27T09:29:07.565Z,13.20
2018-07-27T09:31:36.370Z,15.20
2018-07-27T09:34:05.789Z,14.68
2018-07-27T09:36:34.928Z,14.28
2018-07-27T09:39:04.844Z,12.10
2018-07-27T09:41:33.598Z,12.82
2018-07-27T09:44:02.373Z,13.68
2018-07-27T09:46:31.789Z,13.58
2018-07-27T09:49:01.698Z,15.18
2018-07-27T09:51:30.640Z,14.25
2018-07-27T09:53:59.520Z,14.10
2018-07-27T09:56:28.224Z,14.00
2018-07-27T09:58:57.209Z,12.13
2018-07-27T10:01:27.924Z,12.23
2018-07-27T10:03:58.228Z,11.05
2018-07-27T10:06:27.318Z,10.28
2018-07-27T10:08:56.171Z,11.73
2018-07-27T10:11:24.963Z,11.57
2018-07-27T10:13:53.969Z,10.80
2018-07-27T10:16:22.804Z,10.68
2018-07-27T10:18:52.176Z,10.53
2018-07-27T10:21:21.922Z,11.00
2018-07-27T10:23:50.756Z,10.60
2018-07-27T10:26:19.852Z,10.43
2018-07-27T10:28:48.933Z,10.28
2018-07-27T10:31:17.715Z,10.55
2018-07-27T10:33:46.445Z,10.70
2018-07-27T10:36:15.556Z,11.08
2018-07-27T10:38:44.533Z,10.38
2018-07-27T10:41:13.287Z,9.73
2018-07-27T10:43:42.693Z,10.32
2018-07-27T10:46:11.390Z,10.23
2018-07-27T10:48:41.209Z,11.00
2018-07-27T10:51:10.564Z,9.88
2018-07-27T10:53:39.313Z,9.50
2018-07-27T10:56:08.121Z,9.73
2018-07-27T10:58:37.444Z,10.23
2018-07-27T11:01:06.306Z,10.45
2018-07-27T11:03:34.993Z,10.53
2018-07-27T11:06:04.121Z,10.13
2018-07-27T11:08:32.952Z,10.95
2018-07-27T11:11:02.153Z,9.60
2018-07-27T11:13:31.024Z,8.38
2018-07-27T11:15:59.773Z,9.95
2018-07-27T11:18:28.849Z,8.23
2018-07-27T11:20:57.995Z,9.90
2018-07-27T11:23:28.014Z,8.45
2018-07-27T11:25:56.788Z,8.55
2018-07-27T11:28:25.472Z,8.43
2018-07-27T11:30:54.854Z,8.50
2018-07-27T11:33:24.124Z,7.55
2018-07-27T11:35:53.084Z,7.55
2018-07-27T11:38:21.964Z,8.15
2018-07-27T11:40:50.655Z,7.12
2018-07-27T11:43:19.462Z,8.63
2018-07-27T11:45:48.253Z,8.60
2018-07-27T11:48:17.333Z,10.25
2018-07-27T11:50:46.168Z,8.83
2018-07-27T11:53:15.051Z,12.18
2018-07-27T11:55:44.431Z,9.15
2018-07-27T11:58:13.900Z,9.03
2018-07-27T12:00:42.720Z,10.88
2018-07-27T12:03:11.519Z,8.10
2018-07-27T12:05:40.340Z,8.48
2018-07-27T12:08:09.172Z,9.88
2018-07-27T12:10:38.310Z,7.55
2018-07-27T12:13:07.336Z,7.67
2018-07-27T12:15:36.420Z,11.18
2018-07-27T12:18:05.257Z,7.85
2018-07-27T12:20:34.027Z,8.20
2018-07-27T12:23:02.809Z,6.75
2018-07-27T12:25:32.033Z,6.87
2018-07-27T12:28:00.759Z,7.25
2018-07-27T12:30:30.077Z,7.00
2018-07-27T12:32:58.816Z,7.83
2018-07-27T12:35:27.657Z,7.25
2018-07-27T12:37:56.822Z,9.75
2018-07-27T12:40:25.554Z,7.62
2018-07-27T12:42:54.365Z,7.28
2018-07-27T12:45:23.096Z,12.95
2018-07-27T12:47:51.922Z,9.58
2018-07-27T12:50:20.778Z,11.08
2018-07-27T12:52:49.488Z,5.12
2018-07-27T12:55:18.311Z,6.30
2018-07-27T12:57:46.983Z,5.60
2018-07-27T13:00:15.630Z,4.05
2018-07-27T13:02:44.320Z,3.12
2018-07-27T13:05:12.991Z,3.05
2018-07-27T13:07:42.177Z,3.22
2018-07-27T13:10:11.212Z,5.08
2018-07-27T13:12:39.977Z,4.10
2018-07-27T13:15:09.514Z,2.95
2018-07-27T13:17:38.436Z,4.03
2018-07-27T13:20:07.639Z,6.22
2018-07-27T13:22:37.084Z,4.37
2018-07-27T13:25:05.829Z,4.83
2018-07-27T13:27:34.509Z,5.28
2018-07-27T13:30:04.734Z,4.67
2018-07-27T13:32:33.645Z,4.28
2018-07-27T13:35:02.421Z,5.67
2018-07-27T13:37:32.862Z,5.80
2018-07-27T13:40:03.073Z,10.72
2018-07-27T13:42:33.252Z,6.37
2018-07-27T13:45:02.237Z,9.03
2018-07-27T13:47:30.952Z,4.62
2018-07-27T13:49:59.633Z,4.58
2018-07-27T13:52:28.377Z,4.10
2018-07-27T13:54:57.075Z,3.67
2018-07-27T13:57:26.044Z,4.67
2018-07-27T13:59:54.717Z,4.87
2018-07-27T14:02:23.432Z,3.80
2018-07-27T14:04:52.125Z,3.00
2018-07-27T14:07:20.830Z,3.27
2018-07-27T14:09:49.551Z,3.33
2018-07-27T14:12:18.280Z,3.20
2018-07-27T14:14:46.964Z,4.37
2018-07-27T14:17:15.646Z,4.07
2018-07-27T14:19:44.294Z,5.58
2018-07-27T14:22:12.991Z,4.10
2018-07-27T14:24:41.989Z,5.23
2018-07-27T14:27:10.950Z,5.87
2018-07-27T14:29:39.623Z,8.00
2018-07-27T14:32:08.313Z,8.20
2018-07-27T14:34:37.002Z,7.80
2018-07-27T14:37:06.059Z,8.10
2018-07-27T14:39:34.797Z,7.33
2018-07-27T14:42:03.475Z,8.07
2018-07-27T14:44:32.304Z,7.67
2018-07-27T14:47:00.954Z,9.13
2018-07-27T14:49:29.711Z,7.60
2018-07-27T14:51:58.470Z,7.87
2018-07-27T14:54:27.230Z,8.27
2018-07-27T14:56:55.938Z,8.53
2018-07-27T14:59:24.707Z,8.43
2018-07-27T15:01:53.425Z,7.70
2018-07-27T15:04:22.142Z,8.30
2018-07-27T15:06:50.855Z,7.80
2018-07-27T15:09:19.513Z,8.03
2018-07-27T15:11:48.194Z,8.20
2018-07-27T15:14:16.871Z,8.13
2018-07-27T15:16:45.859Z,8.43
2018-07-27T15:19:15.440Z,8.37
2018-07-27T15:21:45.218Z,8.10
2018-07-27T15:24:14.788Z,8.00
2018-07-27T15:26:43.786Z,7.70
2018-07-27T15:29:12.773Z,7.67
2018-07-27T15:31:43.065Z,7.37
2018-07-27T15:34:12.383Z,7.90
2018-07-27T15:36:41.711Z,8.90
2018-07-27T15:39:11.147Z,8.47
2018-07-27T15:41:40.011Z,8.37
2018-07-27T15:44:08.983Z,8.00
2018-07-27T15:46:39.142Z,7.13
2018-07-27T15:49:08.335Z,9.13
2018-07-27T15:51:38.234Z,7.77
2018-07-27T15:54:07.391Z,9.43
2018-07-27T15:56:36.523Z,7.40
2018-07-27T15:59:05.890Z,7.20
2018-07-27T16:01:35.782Z,7.93
2018-07-27T16:04:05.746Z,7.73
2018-07-27T16:06:34.657Z,8.10
2018-07-27T16:09:03.591Z,8.73
2018-07-27T16:11:32.415Z,8.30
2018-07-27T16:14:01.309Z,8.87
2018-07-27T16:16:30.058Z,9.97
2018-07-27T16:18:58.958Z,11.00
2018-07-27T16:21:27.650Z,8.93
2018-07-27T16:23:56.650Z,8.33
2018-07-27T16:26:26.114Z,8.57
2018-07-27T16:28:54.947Z,7.53
2018-07-27T16:31:24.186Z,9.13
2018-07-27T16:33:53.043Z,8.77
2018-07-27T16:36:22.138Z,7.30
2018-07-27T16:38:50.930Z,7.50
2018-07-27T16:41:19.794Z,8.67
2018-07-27T16:43:48.798Z,9.53
2018-07-27T16:46:17.810Z,7.97
2018-07-27T16:48:46.614Z,8.77
2018-07-27T16:51:15.546Z,10.40
2018-07-27T16:53:44.270Z,8.63
2018-07-27T16:56:13.483Z,10.80
2018-07-27T16:58:42.119Z,9.47
2018-07-27T17:01:10.878Z,8.70
2018-07-27T17:03:39.591Z,8.17
2018-07-27T17:06:08.324Z,9.03
2018-07-27T17:08:36.978Z,7.80
2018-07-27T17:11:05.674Z,8.03
2018-07-27T17:13:34.388Z,10.27
2018-07-27T17:16:03.483Z,11.57
2018-07-27T17:18:32.744Z,8.00
2018-07-27T17:21:01.621Z,7.73
2018-07-27T17:23:30.599Z,10.33
2018-07-27T17:25:59.371Z,11.03
2018-07-27T17:28:28.160Z,9.20
2018-07-27T17:30:56.899Z,9.70
2018-07-27T17:33:25.882Z,8.77
2018-07-27T17:35:54.886Z,8.30
2018-07-27T17:38:23.656Z,7.90
2018-07-27T17:40:53.185Z,8.07
2018-07-27T17:43:22.425Z,9.03
2018-07-27T17:45:51.178Z,8.30
2018-07-27T17:48:19.904Z,8.63
2018-07-27T17:50:48.976Z,9.07
2018-07-27T17:53:17.639Z,8.83
2018-07-27T17:55:46.390Z,9.57
2018-07-27T17:58:16.202Z,8.83
2018-07-27T18:00:45.010Z,9.10
2018-07-27T18:03:13.713Z,8.13
2018-07-27T18:05:42.371Z,10.20
2018-07-27T18:08:11.110Z,10.20
2018-07-27T18:10:39.750Z,14.80
2018-07-27T18:13:08.735Z,10.97
2018-07-27T18:15:38.663Z,9.37
2018-07-27T18:18:07.725Z,11.17
2018-07-27T18:20:36.400Z,9.87
2018-07-27T18:23:05.297Z,11.07
2018-07-27T18:25:34.004Z,12.37
2018-07-27T18:28:03.118Z,13.60
2018-07-27T18:30:31.825Z,19.73
2018-07-27T18:33:00.517Z,22.03
2018-07-27T18:35:29.182Z,15.90
2018-07-27T18:37:57.862Z,12.10
2018-07-27T18:40:26.778Z,12.20
2018-07-27T18:42:55.739Z,11.10
2018-07-27T18:45:24.390Z,11.53
2018-07-27T18:47:53.106Z,13.10
2018-07-27T18:50:21.789Z,14.97
2018-07-27T18:52:50.589Z,13.10
2018-07-27T18:55:19.238Z,16.17
2018-07-27T18:57:47.903Z,19.30
2018-07-27T19:00:16.660Z,13.40
2018-07-27T19:02:45.315Z,13.23
2018-07-27T19:05:14.003Z,13.70
2018-07-27T19:07:42.693Z,13.50
2018-07-27T19:10:11.316Z,15.17
2018-07-27T19:12:39.976Z,11.37
2018-07-27T19:15:09.562Z,11.73
2018-07-27T19:17:38.779Z,12.73
2018-07-27T19:20:07.496Z,14.33
2018-07-27T19:22:36.174Z,12.27
2018-07-27T19:25:04.874Z,10.60
2018-07-27T19:27:33.598Z,9.40
2018-07-27T19:30:02.383Z,9.23
2018-07-27T19:32:31.074Z,10.03
2018-07-27T19:35:00.005Z,9.93
2018-07-27T19:37:28.662Z,9.83
2018-07-27T19:39:57.738Z,16.00
2018-07-27T19:42:27.750Z,16.83
2018-07-27T19:44:57.247Z,24.10
2018-07-27T19:47:26.058Z,25.37
2018-07-27T19:49:54.830Z,33.60
2018-07-27T19:52:23.493Z,26.00
2018-07-27T19:54:52.180Z,23.93
2018-07-27T19:57:20.863Z,16.57
2018-07-27T19:59:49.570Z,15.93
2018-07-27T20:02:18.230Z,14.47
2018-07-27T20:04:46.905Z,20.43
2018-07-27T20:07:15.583Z,18.13
2018-07-27T20:09:44.232Z,10.43
2018-07-27T20:12:12.912Z,9.70
2018-07-27T20:14:41.583Z,9.00
2018-07-27T20:17:10.319Z,9.20
2018-07-27T20:19:39.053Z,11.47
2018-07-27T20:22:07.716Z,9.10
2018-07-27T20:24:36.391Z,8.87
2018-07-27T20:27:05.275Z,9.03
2018-07-27T20:29:33.939Z,8.87
2018-07-27T20:32:02.647Z,7.97
2018-07-27T20:34:31.325Z,7.97
2018-07-27T20:37:00.414Z,8.60
2018-07-27T20:39:29.443Z,9.63
2018-07-27T20:41:58.279Z,8.60
2018-07-27T20:44:27.899Z,9.43
2018-07-27T20:46:56.815Z,8.30
2018-07-27T20:49:25.799Z,7.47
2018-07-27T20:51:54.796Z,7.53
2018-07-27T20:54:23.947Z,8.00
2018-07-27T20:56:52.703Z,7.70
2018-07-27T20:59:21.727Z,7.97
2018-07-27T21:01:50.830Z,7.80
2018-07-27T21:04:19.839Z,7.27
2018-07-27T21:06:49.222Z,8.13
2018-07-27T21:09:17.987Z,9.40
2018-07-27T21:11:46.982Z,9.37
2018-07-27T21:14:15.792Z,8.03
2018-07-27T21:16:44.661Z,7.70
2018-07-27T21:19:13.338Z,8.70
2018-07-27T21:21:42.399Z,8.77
2018-07-27T21:24:11.140Z,8.60
2018-07-27T21:26:39.799Z,8.93
2018-07-27T21:29:08.523Z,9.07
2018-07-27T21:31:37.191Z,8.17
2018-07-27T21:34:05.966Z,8.53
2018-07-27T21:36:35.116Z,7.97
2018-07-27T21:39:04.753Z,8.67
2018-07-27T21:41:33.531Z,8.20
2018-07-27T21:44:02.327Z,8.93
2018-07-27T21:46:31.521Z,8.60
2018-07-27T21:49:00.302Z,8.37
2018-07-27T21:51:29.488Z,8.37
2018-07-27T21:53:58.298Z,8.47
2018-07-27T21:56:27.585Z,8.43
2018-07-27T21:58:56.779Z,8.87
2018-07-27T22:01:26.577Z,8.40
2018-07-27T22:03:55.621Z,8.80
2018-07-27T22:06:24.565Z,9.20
2018-07-27T22:08:53.738Z,8.90
2018-07-27T22:11:22.845Z,8.83
2018-07-27T22:13:51.815Z,9.73
2018-07-27T22:16:20.549Z,8.80
2018-07-27T22:18:49.749Z,9.10
2018-07-27T22:21:18.836Z,9.77
2018-07-27T22:23:48.096Z,8.83
2018-07-27T22:26:17.320Z,8.83
2018-07-27T22:28:46.050Z,8.87
2018-07-27T22:31:15.374Z,10.30
2018-07-27T22:33:44.005Z,9.80
2018-07-27T22:36:12.700Z,9.23
2018-07-27T22:38:41.307Z,8.43
2018-07-27T22:41:10.448Z,8.33
2018-07-27T22:43:39.350Z,8.37
2018-07-27T22:46:08.070Z,8.37
2018-07-27T22:48:36.886Z,8.57
2018-07-27T22:51:06.062Z,8.53
2018-07-27T22:53:35.175Z,8.23
2018-07-27T22:56:04.175Z,8.57
2018-07-27T22:58:33.573Z,8.73
2018-07-27T23:01:02.303Z,9.07
2018-07-27T23:03:30.919Z,8.63
2018-07-27T23:05:59.629Z,9.43
2018-07-27T23:08:28.751Z,9.13
2018-07-27T23:10:57.771Z,8.57
2018-07-27T23:13:26.529Z,11.97
2018-07-27T23:15:55.201Z,8.93
2018-07-27T23:18:24.480Z,10.10
2018-07-27T23:20:53.521Z,8.90
2018-07-27T23:23:22.269Z,8.57
2018-07-27T23:25:50.850Z,8.53
2018-07-27T23:28:19.617Z,8.30
2018-07-27T23:30:48.339Z,8.00
2018-07-27T23:33:17.281Z,8.37
2018-07-27T23:35:46.122Z,8.20
2018-07-27T23:38:14.789Z,8.50
2018-07-27T23:40:43.627Z,8.77
2018-07-27T23:43:12.315Z,8.83
2018-07-27T23:45:41.273Z,8.90
2018-07-27T23:48:10.021Z,8.37
2018-07-27T23:50:39.036Z,8.40
2018-07-27T23:53:07.850Z,8.80
2018-07-27T23:55:36.748Z,8.73
2018-07-27T23:58:05.745Z,9.50
